Terminal Aerodrome Forecast
Issued by NWS

Current Version | Previous Version | Graphics & Text | Print | Product List | Glossary On
Versions: 1 2 3 4 5 6 7 8 9 10 11 12 13 14 15 16 17 18 19 20
000
FTUS41 KILN 221933 AAA
TAFLUK
TAF AMD
KLUK 221933Z 2220/2318 27006KT P6SM VCSH SCT020 BKN060
     FM222100 24005KT P6SM BKN120
     FM230100 22003KT P6SM SCT250
     FM230600 00000KT 4SM BR SCT250
      TEMPO 2308/2312 1SM BR
     FM231300 26005KT P6SM SCT250=

USA.gov is the U.S. government's official web portal to all federal, state and local government web resources and services.